createdAt,value
2022-07-25T00:01:59.614Z,6.37
2022-07-25T00:04:28.200Z,7.13
2022-07-25T00:06:55.981Z,6.43
2022-07-25T00:09:23.602Z,6.87
2022-07-25T00:11:51.196Z,6.97
2022-07-25T00:14:18.840Z,7.20
2022-07-25T00:16:47.815Z,6.63
2022-07-25T00:19:15.498Z,6.93
2022-07-25T00:21:43.149Z,7.13
2022-07-25T00:24:11.021Z,6.63
2022-07-25T00:26:40.444Z,6.70
2022-07-25T00:29:08.483Z,7.70
2022-07-25T00:31:36.449Z,6.47
2022-07-25T00:34:05.833Z,7.03
2022-07-25T00:36:33.808Z,7.00
2022-07-25T00:39:01.468Z,7.40
2022-07-25T00:41:29.211Z,7.37
2022-07-25T00:43:56.832Z,7.23
2022-07-25T00:46:24.598Z,7.47
2022-07-25T00:48:52.391Z,7.07
2022-07-25T00:51:21.496Z,6.47
2022-07-25T00:53:49.226Z,6.80
2022-07-25T00:56:17.065Z,7.50
2022-07-25T00:58:45.421Z,7.27
2022-07-25T01:01:13.124Z,7.30
2022-07-25T01:03:40.774Z,6.97
2022-07-25T01:06:09.205Z,7.20
2022-07-25T01:08:38.375Z,7.17
2022-07-25T01:11:06.634Z,7.43
2022-07-25T01:13:34.792Z,6.93
2022-07-25T01:16:02.547Z,6.43
2022-07-25T01:18:30.234Z,7.47
2022-07-25T01:20:59.233Z,7.77
2022-07-25T01:23:26.911Z,7.37
2022-07-25T01:25:54.878Z,7.47
2022-07-25T01:28:22.527Z,8.37
2022-07-25T01:30:50.184Z,7.27
2022-07-25T01:33:18.493Z,7.53
2022-07-25T01:35:46.380Z,7.40
2022-07-25T01:38:16.377Z,7.27
2022-07-25T01:40:44.838Z,8.17
2022-07-25T01:43:12.815Z,7.33
2022-07-25T01:45:40.510Z,7.93
2022-07-25T01:48:08.564Z,8.83
2022-07-25T01:50:36.375Z,8.40
2022-07-25T01:53:04.480Z,7.50
2022-07-25T01:55:33.499Z,7.87
2022-07-25T01:58:01.134Z,8.50
2022-07-25T02:00:29.203Z,8.80
2022-07-25T02:03:10.761Z,8.43
2022-07-25T02:05:38.495Z,8.77
2022-07-25T02:08:06.216Z,8.20
2022-07-25T02:10:35.277Z,9.07
2022-07-25T02:13:03.505Z,8.10
2022-07-25T02:15:31.405Z,8.77
2022-07-25T02:17:59.299Z,9.33
2022-07-25T02:20:26.957Z,8.17
2022-07-25T02:22:54.617Z,8.27
2022-07-25T02:25:22.695Z,9.83
2022-07-25T02:27:51.982Z,10.87
2022-07-25T02:30:19.695Z,9.13
2022-07-25T02:32:47.328Z,10.70
2022-07-25T02:35:14.992Z,10.13
2022-07-25T02:37:42.675Z,10.80
2022-07-25T02:40:11.341Z,10.97
2022-07-25T02:42:39.171Z,10.40
2022-07-25T02:45:09.470Z,9.77
2022-07-25T02:47:37.145Z,9.83
2022-07-25T02:50:05.475Z,11.03
2022-07-25T02:52:33.154Z,10.67
2022-07-25T02:55:04.879Z,9.03
2022-07-25T02:57:36.671Z,10.27
2022-07-25T03:00:05.475Z,10.90
2022-07-25T03:02:34.555Z,10.13
2022-07-25T03:05:02.296Z,10.70
2022-07-25T03:07:30.078Z,10.70
2022-07-25T03:09:57.712Z,10.33
2022-07-25T03:12:25.377Z,10.33
2022-07-25T03:14:53.056Z,10.23
2022-07-25T03:17:20.925Z,9.93
2022-07-25T03:19:49.947Z,12.37
2022-07-25T03:22:17.681Z,12.00
2022-07-25T03:24:45.332Z,11.80
2022-07-25T03:27:13.336Z,10.23
2022-07-25T03:29:41.116Z,11.37
2022-07-25T03:32:09.139Z,10.40
2022-07-25T03:34:37.211Z,10.17
2022-07-25T03:37:06.604Z,9.50
2022-07-25T03:39:34.369Z,10.43
2022-07-25T03:42:02.005Z,12.07
2022-07-25T03:44:29.645Z,10.77
2022-07-25T03:46:57.260Z,9.20
2022-07-25T03:49:24.928Z,10.13
2022-07-25T03:51:52.563Z,9.97
2022-07-25T03:54:21.610Z,9.27
2022-07-25T03:56:51.708Z,9.20
2022-07-25T03:59:21.412Z,10.13
2022-07-25T04:01:50.960Z,15.07
2022-07-25T04:04:19.500Z,19.03
2022-07-25T04:06:47.519Z,16.67
2022-07-25T04:09:15.805Z,20.30
2022-07-25T04:11:44.847Z,18.40
2022-07-25T04:14:13.193Z,13.70
2022-07-25T04:16:41.723Z,13.13
2022-07-25T04:19:09.410Z,11.90
2022-07-25T04:21:37.899Z,26.63
2022-07-25T04:24:06.459Z,16.60
2022-07-25T04:26:34.457Z,23.43
2022-07-25T04:29:04.101Z,14.53
2022-07-25T04:31:31.936Z,13.33
2022-07-25T04:33:59.945Z,11.93
2022-07-25T04:36:27.648Z,9.57
2022-07-25T04:38:55.529Z,9.87
2022-07-25T04:41:23.300Z,8.87
2022-07-25T04:43:51.071Z,9.80
2022-07-25T04:46:23.591Z,8.77
2022-07-25T04:48:51.923Z,9.43
2022-07-25T04:51:20.190Z,9.10
2022-07-25T04:53:48.257Z,9.27
2022-07-25T04:56:15.980Z,18.20
2022-07-25T04:58:43.954Z,26.73
2022-07-25T05:01:11.680Z,23.40
2022-07-25T05:03:40.881Z,20.57
2022-07-25T05:06:18.136Z,13.77
2022-07-25T05:08:46.226Z,10.70
2022-07-25T05:11:13.897Z,10.13
2022-07-25T05:13:41.917Z,10.37
2022-07-25T05:16:09.805Z,11.27
2022-07-25T05:18:37.486Z,11.33
2022-07-25T05:21:06.600Z,9.37
2022-07-25T05:23:34.233Z,9.53
2022-07-25T05:26:02.351Z,9.10
2022-07-25T05:28:30.127Z,8.50
2022-07-25T05:30:57.816Z,8.67
2022-07-25T05:33:26.525Z,9.33
2022-07-25T05:35:54.283Z,8.67
2022-07-25T05:38:23.428Z,8.87
2022-07-25T05:40:52.436Z,8.10
2022-07-25T05:43:20.330Z,9.13
2022-07-25T05:45:48.380Z,8.20
2022-07-25T05:48:16.158Z,8.80
2022-07-25T05:50:45.954Z,9.10
2022-07-25T05:53:13.601Z,8.73
2022-07-25T05:55:42.949Z,8.30
2022-07-25T05:58:11.079Z,7.77
2022-07-25T06:00:39.259Z,7.43
2022-07-25T06:03:07.291Z,8.10
2022-07-25T06:05:34.996Z,7.27
2022-07-25T06:08:02.661Z,7.60
2022-07-25T06:10:30.380Z,7.53
2022-07-25T06:12:59.410Z,7.13
2022-07-25T06:15:27.831Z,6.87
2022-07-25T06:17:55.894Z,6.47
2022-07-25T06:20:23.922Z,7.40
2022-07-25T06:22:51.579Z,6.87
2022-07-25T06:25:19.344Z,7.40
2022-07-25T06:27:47.195Z,6.53
2022-07-25T06:30:20.086Z,6.80
2022-07-25T06:32:48.552Z,6.90
2022-07-25T06:35:16.372Z,6.57
2022-07-25T06:37:44.152Z,6.27
2022-07-25T06:40:12.449Z,6.20
2022-07-25T06:42:40.454Z,6.53
2022-07-25T06:45:10.370Z,5.83
2022-07-25T06:47:40.343Z,5.93
2022-07-25T06:50:11.260Z,6.17
2022-07-25T06:52:39.536Z,6.00
2022-07-25T06:55:10.358Z,5.73
2022-07-25T06:57:38.580Z,5.93
2022-07-25T07:00:10.175Z,6.70
2022-07-25T07:02:48.709Z,6.57
2022-07-25T07:05:16.443Z,5.73
2022-07-25T07:07:47.643Z,5.80
2022-07-25T07:10:15.872Z,5.57
2022-07-25T07:12:43.981Z,6.27
2022-07-25T07:15:12.479Z,6.33
2022-07-25T07:17:41.523Z,5.60
2022-07-25T07:20:10.321Z,6.23
2022-07-25T07:22:45.048Z,5.70
2022-07-25T07:25:14.258Z,6.20
2022-07-25T07:27:42.072Z,6.00
2022-07-25T07:30:11.018Z,6.30
2022-07-25T07:32:38.860Z,6.57
2022-07-25T07:35:08.680Z,5.90
2022-07-25T07:37:41.393Z,6.33
2022-07-25T07:40:17.360Z,5.73
2022-07-25T07:42:47.469Z,5.90
2022-07-25T07:45:16.341Z,6.70
2022-07-25T07:47:44.501Z,6.10
2022-07-25T07:50:13.553Z,4.77
2022-07-25T07:52:41.226Z,6.30
2022-07-25T07:55:27.083Z,6.20
2022-07-25T07:57:54.849Z,6.38
2022-07-25T08:00:23.111Z,5.90
2022-07-25T08:02:52.638Z,5.72
2022-07-25T08:05:26.621Z,5.80
2022-07-25T08:07:54.977Z,5.90
2022-07-25T08:10:24.039Z,5.65
2022-07-25T08:12:51.760Z,5.03
2022-07-25T08:15:21.032Z,5.28
2022-07-25T08:17:50.236Z,5.10
2022-07-25T08:20:37.031Z,5.28
2022-07-25T08:23:07.019Z,5.10
2022-07-25T08:25:36.260Z,4.97
2022-07-25T08:28:04.174Z,4.63
2022-07-25T08:30:32.263Z,4.57
2022-07-25T08:33:03.432Z,4.40
2022-07-25T08:35:32.099Z,4.63
2022-07-25T08:38:00.563Z,4.60
2022-07-25T08:40:31.110Z,5.28
2022-07-25T08:42:59.727Z,4.60
2022-07-25T08:45:28.702Z,4.97
2022-07-25T08:47:57.509Z,4.57
2022-07-25T08:50:27.448Z,4.78
2022-07-25T08:53:16.266Z,5.03
2022-07-25T08:55:45.866Z,5.38
2022-07-25T08:58:14.205Z,5.32
2022-07-25T09:00:42.249Z,5.43
2022-07-25T09:03:10.336Z,4.70
2022-07-25T09:05:39.203Z,5.13
2022-07-25T09:08:11.208Z,5.60
2022-07-25T09:10:39.700Z,5.43
2022-07-25T09:13:13.938Z,5.82
2022-07-25T09:15:43.738Z,4.53
2022-07-25T09:18:14.515Z,4.85
2022-07-25T09:20:45.821Z,4.90
2022-07-25T09:23:14.450Z,4.88
2022-07-25T09:25:42.795Z,4.88
2022-07-25T09:28:13.922Z,5.45
2022-07-25T09:30:42.386Z,5.68
2022-07-25T09:33:10.098Z,5.63
2022-07-25T09:35:38.817Z,5.20
2022-07-25T09:38:11.063Z,6.00
2022-07-25T09:40:39.492Z,5.53
2022-07-25T09:43:07.329Z,5.82
2022-07-25T09:45:36.412Z,5.13
2022-07-25T09:48:05.778Z,5.45
2022-07-25T09:50:34.411Z,5.80
2022-07-25T09:53:03.732Z,6.05
2022-07-25T09:55:31.989Z,5.55
2022-07-25T09:57:59.775Z,5.10
2022-07-25T10:00:29.470Z,5.72
2022-07-25T10:03:06.854Z,5.72
2022-07-25T10:05:50.661Z,5.90
2022-07-25T10:08:19.910Z,5.18
2022-07-25T10:10:47.790Z,5.47
2022-07-25T10:13:17.988Z,5.78
2022-07-25T10:15:50.446Z,5.70
2022-07-25T10:18:21.735Z,5.55
2022-07-25T10:20:51.275Z,5.63
2022-07-25T10:23:20.646Z,5.38
2022-07-25T10:25:49.283Z,5.53
2022-07-25T10:28:20.357Z,5.93
2022-07-25T10:30:48.349Z,5.95
2022-07-25T10:33:18.623Z,5.47
2022-07-25T10:35:47.846Z,6.63
2022-07-25T10:38:15.664Z,6.03
2022-07-25T10:40:46.561Z,6.18
2022-07-25T10:43:16.171Z,6.00
2022-07-25T10:45:46.090Z,6.50
2022-07-25T10:48:22.352Z,6.65
2022-07-25T10:50:56.554Z,6.95
2022-07-25T10:53:35.543Z,6.40
2022-07-25T10:56:11.045Z,5.43
2022-07-25T10:58:46.885Z,6.15
2022-07-25T11:01:21.110Z,6.30
2022-07-25T11:03:49.273Z,5.90
2022-07-25T11:06:18.857Z,6.32
2022-07-25T11:08:46.811Z,6.03
2022-07-25T11:11:14.473Z,6.00
2022-07-25T11:13:42.754Z,5.70
2022-07-25T11:16:10.979Z,6.00
2022-07-25T11:18:40.911Z,6.90
2022-07-25T11:21:09.585Z,6.18
2022-07-25T11:23:41.564Z,6.45
2022-07-25T11:26:11.364Z,6.22
2022-07-25T11:28:44.206Z,6.03
2022-07-25T11:31:12.450Z,5.60
2022-07-25T11:33:40.577Z,6.43
2022-07-25T11:36:09.699Z,6.05
2022-07-25T11:38:39.381Z,6.13
2022-07-25T11:41:07.898Z,6.45
2022-07-25T11:43:35.716Z,5.95
2022-07-25T11:46:06.601Z,6.03
2022-07-25T11:48:36.749Z,6.90
2022-07-25T11:51:18.590Z,6.18
2022-07-25T11:53:50.095Z,6.43
2022-07-25T11:56:41.249Z,6.03
2022-07-25T11:59:08.882Z,6.55
2022-07-25T12:01:38.520Z,6.03
2022-07-25T12:04:10.958Z,6.15
2022-07-25T12:06:39.339Z,5.97
2022-07-25T12:09:18.897Z,6.50
2022-07-25T12:11:48.042Z,6.32
2022-07-25T12:14:16.110Z,6.70
2022-07-25T12:16:43.872Z,5.70
2022-07-25T12:19:19.902Z,5.88
2022-07-25T12:21:47.596Z,6.13
2022-07-25T12:24:16.649Z,5.38
2022-07-25T12:26:44.332Z,5.65
2022-07-25T12:29:11.959Z,5.53
2022-07-25T12:31:39.601Z,5.75
2022-07-25T12:34:07.456Z,5.57
2022-07-25T12:36:41.143Z,5.95
2022-07-25T12:39:09.262Z,6.07
2022-07-25T12:41:40.047Z,6.22
2022-07-25T12:44:07.836Z,6.05
2022-07-25T12:46:36.069Z,5.47
2022-07-25T12:49:04.119Z,6.00
2022-07-25T12:51:31.945Z,5.65
2022-07-25T12:53:59.589Z,6.03
2022-07-25T12:56:27.266Z,5.72
2022-07-25T12:58:56.305Z,6.00
2022-07-25T13:01:24.018Z,5.90
2022-07-25T13:03:51.718Z,5.68
2022-07-25T13:06:20.828Z,6.10
2022-07-25T13:08:48.513Z,6.07
2022-07-25T13:11:16.157Z,6.03
2022-07-25T13:13:43.824Z,5.35
2022-07-25T13:16:12.974Z,5.95
2022-07-25T13:18:40.696Z,6.18
2022-07-25T13:21:08.374Z,5.78
2022-07-25T13:23:36.114Z,5.90
2022-07-25T13:26:03.920Z,6.45
2022-07-25T13:28:31.624Z,5.63
2022-07-25T13:31:00.490Z,6.25
2022-07-25T13:33:30.559Z,5.35
2022-07-25T13:35:58.484Z,6.10
2022-07-25T13:38:26.182Z,5.55
2022-07-25T13:40:58.738Z,6.38
2022-07-25T13:43:27.041Z,5.35
2022-07-25T13:45:54.828Z,5.93
2022-07-25T13:48:31.010Z,6.18
2022-07-25T13:51:00.657Z,5.53
2022-07-25T13:53:30.474Z,5.88
2022-07-25T13:55:59.083Z,5.70
2022-07-25T13:58:27.076Z,6.18
2022-07-25T14:00:55.308Z,5.82
2022-07-25T14:03:22.988Z,5.65
2022-07-25T14:05:50.755Z,5.50
2022-07-25T14:08:20.186Z,5.60
2022-07-25T14:10:47.839Z,5.43
2022-07-25T14:13:15.855Z,5.03
2022-07-25T14:15:44.017Z,5.07
2022-07-25T14:18:11.693Z,5.72
2022-07-25T14:20:39.773Z,5.53
2022-07-25T14:23:07.421Z,5.45
2022-07-25T14:25:37.312Z,5.00
2022-07-25T14:28:05.177Z,4.85
2022-07-25T14:30:32.858Z,4.80
2022-07-25T14:33:00.522Z,5.50
2022-07-25T14:35:32.276Z,5.13
2022-07-25T14:38:00.681Z,5.60
2022-07-25T14:40:28.575Z,5.47
2022-07-25T14:42:57.576Z,4.80
2022-07-25T14:45:25.304Z,4.88
2022-07-25T14:47:53.958Z,4.50
2022-07-25T14:50:21.785Z,4.55
2022-07-25T14:52:49.456Z,4.90
2022-07-25T14:55:17.258Z,5.22
2022-07-25T14:57:45.307Z,4.82
2022-07-25T15:00:15.555Z,4.38
2022-07-25T15:02:43.202Z,4.72
2022-07-25T15:05:11.198Z,5.10
2022-07-25T15:07:38.986Z,5.35
2022-07-25T15:10:08.323Z,4.93
2022-07-25T15:12:36.024Z,5.90
2022-07-25T15:15:03.726Z,4.90
2022-07-25T15:17:33.463Z,5.95
2022-07-25T15:20:01.274Z,5.68
2022-07-25T15:22:28.956Z,5.55
2022-07-25T15:25:27.551Z,5.38
2022-07-25T15:27:44.652Z,5.30
2022-07-25T15:30:13.145Z,5.95
2022-07-25T15:32:42.127Z,5.65
2022-07-25T15:35:10.395Z,5.05
2022-07-25T15:37:38.031Z,4.80
2022-07-25T15:40:06.908Z,5.47
2022-07-25T15:42:34.653Z,5.65
2022-07-25T15:45:31.619Z,4.70
2022-07-25T15:47:52.245Z,4.30
2022-07-25T15:50:20.376Z,4.95
2022-07-25T15:52:48.134Z,5.45
2022-07-25T15:55:16.096Z,5.18
2022-07-25T15:57:43.770Z,5.13
2022-07-25T16:00:12.534Z,5.03
2022-07-25T16:02:40.182Z,5.43
2022-07-25T16:05:10.080Z,5.43
2022-07-25T16:07:37.831Z,5.47
2022-07-25T16:10:06.355Z,5.47
2022-07-25T16:12:34.017Z,4.53
2022-07-25T16:15:01.689Z,5.07
2022-07-25T16:17:29.342Z,5.60
2022-07-25T16:19:56.992Z,5.18
2022-07-25T16:22:26.360Z,4.80
2022-07-25T16:24:54.091Z,4.95
2022-07-25T16:27:21.760Z,3.85
2022-07-25T16:29:49.430Z,3.50
2022-07-25T16:32:17.059Z,3.15
2022-07-25T16:34:46.123Z,2.80
2022-07-25T16:37:14.087Z,2.78
2022-07-25T16:39:43.096Z,2.90
2022-07-25T16:42:10.746Z,2.67
2022-07-25T16:44:38.413Z,2.53
2022-07-25T16:47:06.233Z,2.70
2022-07-25T16:49:34.009Z,2.72
2022-07-25T16:52:01.693Z,2.78
2022-07-25T16:54:30.446Z,2.90
2022-07-25T16:56:59.870Z,2.88
2022-07-25T16:59:27.686Z,4.15
2022-07-25T17:01:55.409Z,3.75
2022-07-25T17:04:23.140Z,3.13
2022-07-25T17:06:51.826Z,3.20
2022-07-25T17:09:19.499Z,2.78
2022-07-25T17:11:47.164Z,2.88
2022-07-25T17:14:16.183Z,3.13
2022-07-25T17:16:44.246Z,2.95
2022-07-25T17:19:11.929Z,3.28
2022-07-25T17:21:39.593Z,3.13
2022-07-25T17:24:08.125Z,2.78
2022-07-25T17:26:36.587Z,2.75
2022-07-25T17:29:07.893Z,2.83
2022-07-25T17:31:37.508Z,3.05
2022-07-25T17:34:05.303Z,3.20
2022-07-25T17:36:32.987Z,3.40
2022-07-25T17:39:00.628Z,3.65
2022-07-25T17:41:28.420Z,8.13
2022-07-25T17:43:56.091Z,6.85
2022-07-25T17:46:23.829Z,6.03
2022-07-25T17:48:52.953Z,7.30
2022-07-25T17:51:20.741Z,6.53
2022-07-25T17:53:48.405Z,7.85
2022-07-25T17:56:16.084Z,7.45
2022-07-25T17:58:43.757Z,6.75
2022-07-25T18:01:11.452Z,7.03
2022-07-25T18:03:39.349Z,6.72
2022-07-25T18:06:09.032Z,6.88
2022-07-25T18:08:36.953Z,7.22
2022-07-25T18:11:04.760Z,7.88
2022-07-25T18:13:32.775Z,7.40
2022-07-25T18:16:00.663Z,7.78
2022-07-25T18:18:28.581Z,7.65
2022-07-25T18:20:56.485Z,6.97
2022-07-25T18:23:27.109Z,7.90
2022-07-25T18:25:54.937Z,7.63
2022-07-25T18:28:25.088Z,7.10
2022-07-25T18:30:52.935Z,6.35
2022-07-25T18:33:22.115Z,7.75
2022-07-25T18:35:51.246Z,8.53
2022-07-25T18:38:18.954Z,7.32
2022-07-25T18:40:49.603Z,7.28
2022-07-25T18:43:22.099Z,7.22
2022-07-25T18:45:50.814Z,7.15
2022-07-25T18:48:18.561Z,7.78
2022-07-25T18:50:46.278Z,7.40
2022-07-25T18:53:14.004Z,7.53
2022-07-25T18:55:42.398Z,7.72
2022-07-25T18:58:15.925Z,7.28
2022-07-25T19:00:43.945Z,7.60
2022-07-25T19:03:11.785Z,7.50
2022-07-25T19:05:39.837Z,7.07
2022-07-25T19:08:07.793Z,6.95
2022-07-25T19:10:35.451Z,7.55
2022-07-25T19:13:03.225Z,7.13
2022-07-25T19:15:32.386Z,7.13
2022-07-25T19:18:00.149Z,7.13
2022-07-25T19:20:28.221Z,7.28
2022-07-25T19:22:55.990Z,7.33
2022-07-25T19:25:23.931Z,7.50
2022-07-25T19:27:51.621Z,6.93
2022-07-25T19:30:19.929Z,7.05
2022-07-25T19:32:49.008Z,7.70
2022-07-25T19:35:24.120Z,7.30
2022-07-25T19:37:53.741Z,7.63
2022-07-25T19:40:21.517Z,7.80
2022-07-25T19:42:49.220Z,7.40
2022-07-25T19:45:16.892Z,7.65
2022-07-25T19:47:44.513Z,7.73
2022-07-25T19:50:13.603Z,7.32
2022-07-25T19:52:41.244Z,8.63
2022-07-25T19:55:09.944Z,7.60
2022-07-25T19:57:37.604Z,8.00
2022-07-25T20:00:05.973Z,8.53
2022-07-25T20:02:34.513Z,7.78
2022-07-25T20:05:02.235Z,7.95
2022-07-25T20:07:31.250Z,7.70
2022-07-25T20:09:59.360Z,7.83
2022-07-25T20:12:27.048Z,7.53
2022-07-25T20:14:54.777Z,7.80
2022-07-25T20:17:23.367Z,7.50
2022-07-25T20:19:51.806Z,8.07
2022-07-25T20:22:19.463Z,7.43
2022-07-25T20:24:48.511Z,8.17
2022-07-25T20:27:16.197Z,8.13
2022-07-25T20:29:43.994Z,7.77
2022-07-25T20:32:11.762Z,7.90
2022-07-25T20:34:39.692Z,9.10
2022-07-25T20:37:07.299Z,7.90
2022-07-25T20:39:35.003Z,8.23
2022-07-25T20:42:04.067Z,8.30
2022-07-25T20:44:31.731Z,8.87
2022-07-25T20:46:59.381Z,7.40
2022-07-25T20:49:27.112Z,7.97
2022-07-25T20:51:54.938Z,8.63
2022-07-25T20:54:22.798Z,8.40
2022-07-25T20:56:50.504Z,8.33
2022-07-25T20:59:19.593Z,7.63
2022-07-25T21:01:47.437Z,6.93
2022-07-25T21:04:16.546Z,7.53
2022-07-25T21:06:45.948Z,7.60
2022-07-25T21:09:13.695Z,7.00
2022-07-25T21:11:41.384Z,6.93
2022-07-25T21:14:09.289Z,6.90
2022-07-25T21:16:38.726Z,7.00
2022-07-25T21:19:06.591Z,7.07
2022-07-25T21:21:36.115Z,7.40
2022-07-25T21:24:03.797Z,7.30
2022-07-25T21:26:31.516Z,6.90
2022-07-25T21:28:59.218Z,7.63
2022-07-25T21:31:26.998Z,6.93
2022-07-25T21:33:56.091Z,7.27
2022-07-25T21:36:23.881Z,7.03
2022-07-25T21:38:51.598Z,7.37
2022-07-25T21:41:19.485Z,6.97
2022-07-25T21:43:47.476Z,7.30
2022-07-25T21:46:15.619Z,6.83
2022-07-25T21:49:01.204Z,6.80
2022-07-25T21:51:40.192Z,6.13
2022-07-25T21:54:08.849Z,6.00
2022-07-25T21:56:36.539Z,6.23
2022-07-25T21:59:04.537Z,5.70
2022-07-25T22:01:32.455Z,5.63
2022-07-25T22:04:00.264Z,5.40
2022-07-25T22:06:28.092Z,6.00
2022-07-25T22:08:57.264Z,5.40
2022-07-25T22:11:42.573Z,5.77
2022-07-25T22:14:13.264Z,6.07
2022-07-25T22:16:40.999Z,6.83
2022-07-25T22:19:09.140Z,6.77
2022-07-25T22:21:37.055Z,6.90
2022-07-25T22:24:06.866Z,7.67
2022-07-25T22:26:34.597Z,6.67
2022-07-25T22:29:02.291Z,6.97
2022-07-25T22:31:30.679Z,6.80
2022-07-25T22:33:58.363Z,6.70
2022-07-25T22:36:26.305Z,7.03
2022-07-25T22:38:53.946Z,7.23
2022-07-25T22:41:23.166Z,6.33
2022-07-25T22:43:58.942Z,6.73
2022-07-25T22:46:27.888Z,6.70
2022-07-25T22:48:55.743Z,7.03
2022-07-25T22:51:23.824Z,7.50
2022-07-25T22:53:51.634Z,7.63
2022-07-25T22:56:19.492Z,7.13
2022-07-25T22:58:48.915Z,6.90
2022-07-25T23:01:17.494Z,7.00
2022-07-25T23:03:45.283Z,7.10
2022-07-25T23:06:13.568Z,7.10
2022-07-25T23:08:41.585Z,7.20
2022-07-25T23:11:09.568Z,7.17
2022-07-25T23:13:37.530Z,7.33
2022-07-25T23:16:10.306Z,7.17
2022-07-25T23:18:38.468Z,7.17
2022-07-25T23:21:06.287Z,7.57
2022-07-25T23:23:34.241Z,7.10
2022-07-25T23:26:02.142Z,7.77
2022-07-25T23:28:29.803Z,7.20
2022-07-25T23:30:57.447Z,7.60
2022-07-25T23:33:26.405Z,7.97
2022-07-25T23:35:54.130Z,6.97
2022-07-25T23:38:21.770Z,8.10
2022-07-25T23:40:50.042Z,7.53
2022-07-25T23:43:23.545Z,7.50
2022-07-25T23:46:06.425Z,8.33
2022-07-25T23:48:36.504Z,7.17
2022-07-25T23:51:04.287Z,7.57
2022-07-25T23:53:34.485Z,7.47
2022-07-25T23:56:02.121Z,7.80
2022-07-25T23:58:29.762Z,7.47
